sensor_id;sensor_type;location;lat;lon;timestamp;pressure;altitude;pressure_sealevel;temperature
5571;BMP180;2808;51.240;6.794;2023-03-01T00:01:20;102520.00;;;0.80
5571;BMP180;2808;51.240;6.794;2023-03-01T00:03:51;102522.00;;;0.80
5571;BMP180;2808;51.240;6.794;2023-03-01T00:06:20;102514.00;;;0.70
5571;BMP180;2808;51.240;6.794;2023-03-01T00:08:48;102518.00;;;0.70
5571;BMP180;2808;51.240;6.794;2023-03-01T00:11:18;102518.00;;;0.70
5571;BMP180;2808;51.240;6.794;2023-03-01T00:13:47;102516.00;;;0.60
5571;BMP180;2808;51.240;6.794;2023-03-01T00:16:18;102513.00;;;0.60
5571;BMP180;2808;51.240;6.794;2023-03-01T00:18:45;102511.00;;;0.60
5571;BMP180;2808;51.240;6.794;2023-03-01T00:21:14;102522.00;;;0.60
5571;BMP180;2808;51.240;6.794;2023-03-01T00:23:42;102515.00;;;0.60
5571;BMP180;2808;51.240;6.794;2023-03-01T00:26:12;102505.00;;;0.50
5571;BMP180;2808;51.240;6.794;2023-03-01T00:28:40;102502.00;;;0.50
5571;BMP180;2808;51.240;6.794;2023-03-01T00:31:11;102504.00;;;0.50
5571;BMP180;2808;51.240;6.794;2023-03-01T00:33:39;102505.00;;;0.50
5571;BMP180;2808;51.240;6.794;2023-03-01T00:36:08;102506.00;;;0.40
5571;BMP180;2808;51.240;6.794;2023-03-01T00:38:38;102501.00;;;0.40
5571;BMP180;2808;51.240;6.794;2023-03-01T00:41:06;102497.00;;;0.40
5571;BMP180;2808;51.240;6.794;2023-03-01T00:43:34;102501.00;;;0.30
5571;BMP180;2808;51.240;6.794;2023-03-01T00:46:06;102498.00;;;0.30
5571;BMP180;2808;51.240;6.794;2023-03-01T00:48:34;102494.00;;;0.30
5571;BMP180;2808;51.240;6.794;2023-03-01T00:51:06;102493.00;;;0.20
5571;BMP180;2808;51.240;6.794;2023-03-01T00:53:34;102486.00;;;0.20
5571;BMP180;2808;51.240;6.794;2023-03-01T00:56:04;102484.00;;;0.20
5571;BMP180;2808;51.240;6.794;2023-03-01T00:58:32;102481.00;;;0.10
5571;BMP180;2808;51.240;6.794;2023-03-01T01:01:00;102487.00;;;0.10
5571;BMP180;2808;51.240;6.794;2023-03-01T01:03:27;102477.00;;;0.10
5571;BMP180;2808;51.240;6.794;2023-03-01T01:05:55;102482.00;;;0.10
5571;BMP180;2808;51.240;6.794;2023-03-01T01:08:22;102480.00;;;0.00
5571;BMP180;2808;51.240;6.794;2023-03-01T01:10:49;102484.00;;;0.10
5571;BMP180;2808;51.240;6.794;2023-03-01T01:13:19;102477.00;;;0.00
5571;BMP180;2808;51.240;6.794;2023-03-01T01:15:46;102482.00;;;0.00
5571;BMP180;2808;51.240;6.794;2023-03-01T01:18:14;102468.00;;;0.00
5571;BMP180;2808;51.240;6.794;2023-03-01T01:20:44;102453.00;;;0.00
5571;BMP180;2808;51.240;6.794;2023-03-01T01:23:12;102450.00;;;0.00
5571;BMP180;2808;51.240;6.794;2023-03-01T01:25:39;102451.00;;;0.00
5571;BMP180;2808;51.240;6.794;2023-03-01T01:28:07;102449.00;;;0.00
5571;BMP180;2808;51.240;6.794;2023-03-01T01:30:36;102444.00;;;0.00
5571;BMP180;2808;51.240;6.794;2023-03-01T01:33:03;102445.00;;;0.00
5571;BMP180;2808;51.240;6.794;2023-03-01T01:36:00;102438.00;;;0.00
5571;BMP180;2808;51.240;6.794;2023-03-01T01:38:32;102434.00;;;0.00
5571;BMP180;2808;51.240;6.794;2023-03-01T01:41:00;102443.00;;;0.00
5571;BMP180;2808;51.240;6.794;2023-03-01T01:43:30;102444.00;;;-0.10
5571;BMP180;2808;51.240;6.794;2023-03-01T01:46:01;102425.00;;;-0.10
5571;BMP180;2808;51.240;6.794;2023-03-01T01:48:32;102425.00;;;-0.10
5571;BMP180;2808;51.240;6.794;2023-03-01T01:51:09;102431.00;;;-0.20
5571;BMP180;2808;51.240;6.794;2023-03-01T01:53:38;102411.00;;;-0.20
5571;BMP180;2808;51.240;6.794;2023-03-01T01:56:09;102405.00;;;-0.20
5571;BMP180;2808;51.240;6.794;2023-03-01T01:58:40;102401.00;;;-0.10
5571;BMP180;2808;51.240;6.794;2023-03-01T02:01:09;102414.00;;;-0.10
5571;BMP180;2808;51.240;6.794;2023-03-01T02:03:39;102408.00;;;0.00
5571;BMP180;2808;51.240;6.794;2023-03-01T02:06:13;102400.00;;;0.00
5571;BMP180;2808;51.240;6.794;2023-03-01T02:08:45;102407.00;;;0.00
5571;BMP180;2808;51.240;6.794;2023-03-01T02:11:14;102412.00;;;-0.10
5571;BMP180;2808;51.240;6.794;2023-03-01T02:13:47;102404.00;;;-0.10
5571;BMP180;2808;51.240;6.794;2023-03-01T02:16:17;102415.00;;;-0.10
5571;BMP180;2808;51.240;6.794;2023-03-01T02:18:45;102418.00;;;-0.10
5571;BMP180;2808;51.240;6.794;2023-03-01T02:21:23;102412.00;;;-0.20
5571;BMP180;2808;51.240;6.794;2023-03-01T02:23:53;102416.00;;;-0.20
5571;BMP180;2808;51.240;6.794;2023-03-01T02:26:29;102412.00;;;-0.20
5571;BMP180;2808;51.240;6.794;2023-03-01T02:29:00;102411.00;;;-0.30
5571;BMP180;2808;51.240;6.794;2023-03-01T02:31:28;102421.00;;;-0.40
5571;BMP180;2808;51.240;6.794;2023-03-01T02:34:13;102407.00;;;-0.40
5571;BMP180;2808;51.240;6.794;2023-03-01T02:36:44;102414.00;;;-0.40
5571;BMP180;2808;51.240;6.794;2023-03-01T02:39:18;102408.00;;;-0.40
5571;BMP180;2808;51.240;6.794;2023-03-01T02:41:50;102414.00;;;-0.40
5571;BMP180;2808;51.240;6.794;2023-03-01T02:44:20;102408.00;;;-0.50
5571;BMP180;2808;51.240;6.794;2023-03-01T02:46:50;102395.00;;;-0.50
5571;BMP180;2808;51.240;6.794;2023-03-01T02:49:24;102396.00;;;-0.50
5571;BMP180;2808;51.240;6.794;2023-03-01T02:55:00;102402.00;;;-0.40
5571;BMP180;2808;51.240;6.794;2023-03-01T02:57:30;102406.00;;;-0.40
5571;BMP180;2808;51.240;6.794;2023-03-01T03:00:03;102405.00;;;-0.40
5571;BMP180;2808;51.240;6.794;2023-03-01T03:02:35;102408.00;;;-0.40
5571;BMP180;2808;51.240;6.794;2023-03-01T03:05:08;102402.00;;;-0.40
5571;BMP180;2808;51.240;6.794;2023-03-01T03:07:37;102391.00;;;-0.40
5571;BMP180;2808;51.240;6.794;2023-03-01T03:10:09;102402.00;;;-0.50
5571;BMP180;2808;51.240;6.794;2023-03-01T03:12:37;102398.00;;;-0.50
5571;BMP180;2808;51.240;6.794;2023-03-01T03:15:08;102394.00;;;-0.60
5571;BMP180;2808;51.240;6.794;2023-03-01T03:17:39;102402.00;;;-0.60
5571;BMP180;2808;51.240;6.794;2023-03-01T03:20:10;102394.00;;;-0.70
5571;BMP180;2808;51.240;6.794;2023-03-01T03:22:39;102384.00;;;-0.70
5571;BMP180;2808;51.240;6.794;2023-03-01T03:25:08;102392.00;;;-0.70
5571;BMP180;2808;51.240;6.794;2023-03-01T03:27:36;102388.00;;;-0.60
5571;BMP180;2808;51.240;6.794;2023-03-01T03:30:08;102378.00;;;-0.60
5571;BMP180;2808;51.240;6.794;2023-03-01T03:32:38;102393.00;;;-0.60
5571;BMP180;2808;51.240;6.794;2023-03-01T03:35:09;102397.00;;;-0.60
5571;BMP180;2808;51.240;6.794;2023-03-01T03:37:39;102387.00;;;-0.60
5571;BMP180;2808;51.240;6.794;2023-03-01T03:40:25;102372.00;;;-0.60
5571;BMP180;2808;51.240;6.794;2023-03-01T03:42:53;102370.00;;;-0.70
5571;BMP180;2808;51.240;6.794;2023-03-01T03:45:22;102364.00;;;-0.70
5571;BMP180;2808;51.240;6.794;2023-03-01T03:47:50;102364.00;;;-0.70
5571;BMP180;2808;51.240;6.794;2023-03-01T03:50:18;102362.00;;;-0.70
5571;BMP180;2808;51.240;6.794;2023-03-01T03:52:45;102368.00;;;-0.70
5571;BMP180;2808;51.240;6.794;2023-03-01T03:55:15;102367.00;;;-0.70
5571;BMP180;2808;51.240;6.794;2023-03-01T03:57:46;102361.00;;;-0.70
5571;BMP180;2808;51.240;6.794;2023-03-01T04:00:21;102369.00;;;-0.80
5571;BMP180;2808;51.240;6.794;2023-03-01T04:02:51;102366.00;;;-0.80
5571;BMP180;2808;51.240;6.794;2023-03-01T04:05:23;102364.00;;;-0.80
5571;BMP180;2808;51.240;6.794;2023-03-01T04:07:51;102360.00;;;-0.80
5571;BMP180;2808;51.240;6.794;2023-03-01T04:10:27;102350.00;;;-0.80
5571;BMP180;2808;51.240;6.794;2023-03-01T04:12:55;102349.00;;;-0.80
5571;BMP180;2808;51.240;6.794;2023-03-01T04:15:26;102333.00;;;-0.80
5571;BMP180;2808;51.240;6.794;2023-03-01T04:17:55;102334.00;;;-0.90
5571;BMP180;2808;51.240;6.794;2023-03-01T04:20:26;102337.00;;;-0.80
5571;BMP180;2808;51.240;6.794;2023-03-01T04:23:00;102337.00;;;-0.90
5571;BMP180;2808;51.240;6.794;2023-03-01T04:25:37;102343.00;;;-0.90
5571;BMP180;2808;51.240;6.794;2023-03-01T04:28:05;102341.00;;;-0.90
5571;BMP180;2808;51.240;6.794;2023-03-01T04:30:32;102335.00;;;-0.90
5571;BMP180;2808;51.240;6.794;2023-03-01T04:33:04;102337.00;;;-0.90
5571;BMP180;2808;51.240;6.794;2023-03-01T04:35:31;102335.00;;;-0.90
5571;BMP180;2808;51.240;6.794;2023-03-01T04:37:59;102334.00;;;-0.90
5571;BMP180;2808;51.240;6.794;2023-03-01T04:40:29;102332.00;;;-0.90
5571;BMP180;2808;51.240;6.794;2023-03-01T04:42:56;102342.00;;;-0.90
5571;BMP180;2808;51.240;6.794;2023-03-01T04:45:24;102345.00;;;-0.90
5571;BMP180;2808;51.240;6.794;2023-03-01T04:47:51;102332.00;;;-1.00
5571;BMP180;2808;51.240;6.794;2023-03-01T04:50:22;102332.00;;;-1.00
5571;BMP180;2808;51.240;6.794;2023-03-01T04:52:52;102331.00;;;-0.90
5571;BMP180;2808;51.240;6.794;2023-03-01T04:55:20;102336.00;;;-0.90
5571;BMP180;2808;51.240;6.794;2023-03-01T04:57:47;102327.00;;;-0.90
5571;BMP180;2808;51.240;6.794;2023-03-01T05:00:16;102333.00;;;-0.90
5571;BMP180;2808;51.240;6.794;2023-03-01T05:02:50;102328.00;;;-0.90
5571;BMP180;2808;51.240;6.794;2023-03-01T05:05:23;102337.00;;;-0.90
5571;BMP180;2808;51.240;6.794;2023-03-01T05:07:53;102341.00;;;-0.90
5571;BMP180;2808;51.240;6.794;2023-03-01T05:10:22;102334.00;;;-0.90
5571;BMP180;2808;51.240;6.794;2023-03-01T05:12:49;102329.00;;;-0.90
5571;BMP180;2808;51.240;6.794;2023-03-01T05:15:23;102320.00;;;-1.00
5571;BMP180;2808;51.240;6.794;2023-03-01T05:17:51;102320.00;;;-1.00
5571;BMP180;2808;51.240;6.794;2023-03-01T05:20:21;102319.00;;;-1.00
5571;BMP180;2808;51.240;6.794;2023-03-01T05:22:50;102327.00;;;-1.00
5571;BMP180;2808;51.240;6.794;2023-03-01T05:25:17;102318.00;;;-1.00
5571;BMP180;2808;51.240;6.794;2023-03-01T05:27:47;102318.00;;;-1.00
5571;BMP180;2808;51.240;6.794;2023-03-01T05:30:16;102320.00;;;-1.10
5571;BMP180;2808;51.240;6.794;2023-03-01T05:32:45;102309.00;;;-1.10
5571;BMP180;2808;51.240;6.794;2023-03-01T05:35:14;102318.00;;;-1.10
5571;BMP180;2808;51.240;6.794;2023-03-01T05:37:46;102316.00;;;-1.10
5571;BMP180;2808;51.240;6.794;2023-03-01T05:40:15;102313.00;;;-1.10
5571;BMP180;2808;51.240;6.794;2023-03-01T05:42:44;102310.00;;;-1.10
5571;BMP180;2808;51.240;6.794;2023-03-01T05:45:14;102314.00;;;-1.10
5571;BMP180;2808;51.240;6.794;2023-03-01T05:47:43;102311.00;;;-1.10
5571;BMP180;2808;51.240;6.794;2023-03-01T05:50:13;102309.00;;;-1.10
5571;BMP180;2808;51.240;6.794;2023-03-01T05:52:46;102308.00;;;-1.10
5571;BMP180;2808;51.240;6.794;2023-03-01T05:55:15;102300.00;;;-1.10
5571;BMP180;2808;51.240;6.794;2023-03-01T05:57:42;102305.00;;;-1.10
5571;BMP180;2808;51.240;6.794;2023-03-01T06:00:11;102312.00;;;-1.10
5571;BMP180;2808;51.240;6.794;2023-03-01T06:02:39;102319.00;;;-1.00
5571;BMP180;2808;51.240;6.794;2023-03-01T06:05:09;102309.00;;;-1.00
5571;BMP180;2808;51.240;6.794;2023-03-01T06:07:39;102309.00;;;-1.00
5571;BMP180;2808;51.240;6.794;2023-03-01T06:10:09;102310.00;;;-1.00
5571;BMP180;2808;51.240;6.794;2023-03-01T06:12:39;102308.00;;;-1.00
5571;BMP180;2808;51.240;6.794;2023-03-01T06:15:10;102310.00;;;-1.00
5571;BMP180;2808;51.240;6.794;2023-03-01T06:17:42;102303.00;;;-0.90
5571;BMP180;2808;51.240;6.794;2023-03-01T06:20:13;102308.00;;;-0.90
5571;BMP180;2808;51.240;6.794;2023-03-01T06:22:42;102311.00;;;-0.80
5571;BMP180;2808;51.240;6.794;2023-03-01T06:25:11;102316.00;;;-0.90
5571;BMP180;2808;51.240;6.794;2023-03-01T06:27:40;102308.00;;;-0.80
5571;BMP180;2808;51.240;6.794;2023-03-01T06:30:09;102310.00;;;-0.80
5571;BMP180;2808;51.240;6.794;2023-03-01T06:32:37;102305.00;;;-0.70
5571;BMP180;2808;51.240;6.794;2023-03-01T06:35:08;102294.00;;;-0.60
5571;BMP180;2808;51.240;6.794;2023-03-01T06:37:35;102299.00;;;-0.60
5571;BMP180;2808;51.240;6.794;2023-03-01T06:40:04;102301.00;;;-0.60
5571;BMP180;2808;51.240;6.794;2023-03-01T06:42:35;102307.00;;;-0.50
5571;BMP180;2808;51.240;6.794;2023-03-01T06:45:04;102306.00;;;-0.40
5571;BMP180;2808;51.240;6.794;2023-03-01T06:47:32;102302.00;;;-0.20
5571;BMP180;2808;51.240;6.794;2023-03-01T06:50:00;102301.00;;;0.00
5571;BMP180;2808;51.240;6.794;2023-03-01T06:52:28;102302.00;;;0.30
5571;BMP180;2808;51.240;6.794;2023-03-01T06:54:55;102296.00;;;0.50
5571;BMP180;2808;51.240;6.794;2023-03-01T06:57:23;102305.00;;;0.70
5571;BMP180;2808;51.240;6.794;2023-03-01T06:59:51;102306.00;;;0.90
5571;BMP180;2808;51.240;6.794;2023-03-01T07:02:19;102301.00;;;1.10
5571;BMP180;2808;51.240;6.794;2023-03-01T07:04:48;102292.00;;;1.20
5571;BMP180;2808;51.240;6.794;2023-03-01T07:07:16;102292.00;;;1.50
5571;BMP180;2808;51.240;6.794;2023-03-01T07:09:44;102305.00;;;1.70
5571;BMP180;2808;51.240;6.794;2023-03-01T07:12:14;102301.00;;;1.80
5571;BMP180;2808;51.240;6.794;2023-03-01T07:14:43;102289.00;;;1.80
5571;BMP180;2808;51.240;6.794;2023-03-01T07:17:12;102299.00;;;2.00
5571;BMP180;2808;51.240;6.794;2023-03-01T07:19:39;102289.00;;;2.10
5571;BMP180;2808;51.240;6.794;2023-03-01T07:22:07;102282.00;;;2.30
5571;BMP180;2808;51.240;6.794;2023-03-01T07:24:41;102278.00;;;2.50
5571;BMP180;2808;51.240;6.794;2023-03-01T07:27:09;102291.00;;;2.60
5571;BMP180;2808;51.240;6.794;2023-03-01T07:29:36;102282.00;;;2.70
5571;BMP180;2808;51.240;6.794;2023-03-01T07:32:05;102284.00;;;2.90
5571;BMP180;2808;51.240;6.794;2023-03-01T07:34:34;102276.00;;;3.00
5571;BMP180;2808;51.240;6.794;2023-03-01T07:37:06;102283.00;;;3.20
5571;BMP180;2808;51.240;6.794;2023-03-01T07:39:34;102278.00;;;3.30
5571;BMP180;2808;51.240;6.794;2023-03-01T07:42:01;102278.00;;;3.60
5571;BMP180;2808;51.240;6.794;2023-03-01T07:44:29;102277.00;;;3.80
5571;BMP180;2808;51.240;6.794;2023-03-01T07:46:56;102272.00;;;3.90
5571;BMP180;2808;51.240;6.794;2023-03-01T07:49:24;102282.00;;;4.10
5571;BMP180;2808;51.240;6.794;2023-03-01T07:51:53;102295.00;;;4.40
5571;BMP180;2808;51.240;6.794;2023-03-01T07:54:22;102291.00;;;4.40
5571;BMP180;2808;51.240;6.794;2023-03-01T07:56:49;102280.00;;;4.50
5571;BMP180;2808;51.240;6.794;2023-03-01T07:59:17;102287.00;;;4.80
5571;BMP180;2808;51.240;6.794;2023-03-01T08:01:44;102290.00;;;5.10
5571;BMP180;2808;51.240;6.794;2023-03-01T08:04:12;102287.00;;;4.90
5571;BMP180;2808;51.240;6.794;2023-03-01T08:06:39;102291.00;;;5.20
5571;BMP180;2808;51.240;6.794;2023-03-01T08:09:09;102288.00;;;5.30
5571;BMP180;2808;51.240;6.794;2023-03-01T08:11:37;102293.00;;;5.50
5571;BMP180;2808;51.240;6.794;2023-03-01T08:14:05;102292.00;;;5.30
5571;BMP180;2808;51.240;6.794;2023-03-01T08:16:33;102286.00;;;4.70
5571;BMP180;2808;51.240;6.794;2023-03-01T08:19:04;102285.00;;;4.70
5571;BMP180;2808;51.240;6.794;2023-03-01T08:21:33;102280.00;;;4.30
5571;BMP180;2808;51.240;6.794;2023-03-01T08:24:01;102282.00;;;4.40
5571;BMP180;2808;51.240;6.794;2023-03-01T08:26:31;102291.00;;;4.30
5571;BMP180;2808;51.240;6.794;2023-03-01T08:28:59;102284.00;;;4.10
5571;BMP180;2808;51.240;6.794;2023-03-01T08:31:28;102294.00;;;3.90
5571;BMP180;2808;51.240;6.794;2023-03-01T08:33:58;102279.00;;;3.60
5571;BMP180;2808;51.240;6.794;2023-03-01T08:36:28;102290.00;;;3.50
5571;BMP180;2808;51.240;6.794;2023-03-01T08:38:59;102284.00;;;3.90
5571;BMP180;2808;51.240;6.794;2023-03-01T08:41:27;102289.00;;;4.50
5571;BMP180;2808;51.240;6.794;2023-03-01T08:43:59;102275.00;;;4.70
5571;BMP180;2808;51.240;6.794;2023-03-01T08:46:27;102278.00;;;5.10
5571;BMP180;2808;51.240;6.794;2023-03-01T08:48:55;102276.00;;;5.10
5571;BMP180;2808;51.240;6.794;2023-03-01T08:51:23;102273.00;;;4.70
5571;BMP180;2808;51.240;6.794;2023-03-01T08:53:53;102273.00;;;4.80
5571;BMP180;2808;51.240;6.794;2023-03-01T08:56:21;102270.00;;;4.80
5571;BMP180;2808;51.240;6.794;2023-03-01T08:58:49;102271.00;;;4.80
5571;BMP180;2808;51.240;6.794;2023-03-01T09:01:19;102275.00;;;4.90
5571;BMP180;2808;51.240;6.794;2023-03-01T09:03:47;102274.00;;;4.70
5571;BMP180;2808;51.240;6.794;2023-03-01T09:06:15;102280.00;;;4.50
5571;BMP180;2808;51.240;6.794;2023-03-01T09:08:45;102264.00;;;4.60
5571;BMP180;2808;51.240;6.794;2023-03-01T09:11:14;102259.00;;;4.70
5571;BMP180;2808;51.240;6.794;2023-03-01T09:13:42;102263.00;;;4.80
5571;BMP180;2808;51.240;6.794;2023-03-01T09:16:11;102266.00;;;4.70
5571;BMP180;2808;51.240;6.794;2023-03-01T09:18:40;102266.00;;;4.80
5571;BMP180;2808;51.240;6.794;2023-03-01T09:21:12;102274.00;;;4.90
5571;BMP180;2808;51.240;6.794;2023-03-01T09:23:42;102277.00;;;4.80
5571;BMP180;2808;51.240;6.794;2023-03-01T09:26:13;102264.00;;;4.70
5571;BMP180;2808;51.240;6.794;2023-03-01T09:28:42;102265.00;;;5.00
5571;BMP180;2808;51.240;6.794;2023-03-01T09:31:10;102267.00;;;5.10
5571;BMP180;2808;51.240;6.794;2023-03-01T09:33:45;102258.00;;;4.80
5571;BMP180;2808;51.240;6.794;2023-03-01T09:36:14;102260.00;;;4.60
5571;BMP180;2808;51.240;6.794;2023-03-01T09:38:42;102245.00;;;4.60
5571;BMP180;2808;51.240;6.794;2023-03-01T09:41:14;102243.00;;;4.70
5571;BMP180;2808;51.240;6.794;2023-03-01T09:43:49;102245.00;;;4.60
5571;BMP180;2808;51.240;6.794;2023-03-01T09:46:22;102244.00;;;4.60
5571;BMP180;2808;51.240;6.794;2023-03-01T09:48:57;102229.00;;;4.70
5571;BMP180;2808;51.240;6.794;2023-03-01T09:51:29;102227.00;;;4.90
5571;BMP180;2808;51.240;6.794;2023-03-01T09:54:25;102241.00;;;4.80
5571;BMP180;2808;51.240;6.794;2023-03-01T09:57:12;102239.00;;;4.50
5571;BMP180;2808;51.240;6.794;2023-03-01T10:02:51;102238.00;;;4.80
5571;BMP180;2808;51.240;6.794;2023-03-01T10:05:41;102239.00;;;4.50
5571;BMP180;2808;51.240;6.794;2023-03-01T10:08:30;102222.00;;;4.40
5571;BMP180;2808;51.240;6.794;2023-03-01T10:11:02;102230.00;;;4.50
5571;BMP180;2808;51.240;6.794;2023-03-01T10:13:39;102223.00;;;4.60
5571;BMP180;2808;51.240;6.794;2023-03-01T10:16:15;102225.00;;;4.50
5571;BMP180;2808;51.240;6.794;2023-03-01T10:18:46;102223.00;;;4.60
5571;BMP180;2808;51.240;6.794;2023-03-01T10:21:19;102214.00;;;4.60
5571;BMP180;2808;51.240;6.794;2023-03-01T10:23:50;102216.00;;;4.50
5571;BMP180;2808;51.240;6.794;2023-03-01T10:26:29;102208.00;;;4.50
5571;BMP180;2808;51.240;6.794;2023-03-01T10:29:04;102208.00;;;4.30
5571;BMP180;2808;51.240;6.794;2023-03-01T10:31:41;102203.00;;;4.40
5571;BMP180;2808;51.240;6.794;2023-03-01T10:34:17;102202.00;;;4.40
5571;BMP180;2808;51.240;6.794;2023-03-01T10:36:49;102196.00;;;4.50
5571;BMP180;2808;51.240;6.794;2023-03-01T10:39:19;102197.00;;;4.60
5571;BMP180;2808;51.240;6.794;2023-03-01T10:41:58;102195.00;;;4.70
5571;BMP180;2808;51.240;6.794;2023-03-01T10:44:44;102192.00;;;4.80
5571;BMP180;2808;51.240;6.794;2023-03-01T10:47:20;102198.00;;;4.60
5571;BMP180;2808;51.240;6.794;2023-03-01T10:49:56;102191.00;;;4.40
5571;BMP180;2808;51.240;6.794;2023-03-01T10:52:33;102190.00;;;4.30
5571;BMP180;2808;51.240;6.794;2023-03-01T10:55:03;102188.00;;;4.40
5571;BMP180;2808;51.240;6.794;2023-03-01T10:57:35;102184.00;;;4.50
5571;BMP180;2808;51.240;6.794;2023-03-01T11:00:24;102178.00;;;4.50
5571;BMP180;2808;51.240;6.794;2023-03-01T11:03:09;102172.00;;;4.80
5571;BMP180;2808;51.240;6.794;2023-03-01T11:05:37;102170.00;;;5.00
5571;BMP180;2808;51.240;6.794;2023-03-01T11:08:31;102177.00;;;4.70
5571;BMP180;2808;51.240;6.794;2023-03-01T11:11:13;102180.00;;;4.70
5571;BMP180;2808;51.240;6.794;2023-03-01T11:13:51;102159.00;;;4.70
5571;BMP180;2808;51.240;6.794;2023-03-01T11:16:25;102166.00;;;4.80
5571;BMP180;2808;51.240;6.794;2023-03-01T11:19:18;102164.00;;;4.80
5571;BMP180;2808;51.240;6.794;2023-03-01T11:21:53;102157.00;;;4.80
5571;BMP180;2808;51.240;6.794;2023-03-01T11:24:30;102147.00;;;4.80
5571;BMP180;2808;51.240;6.794;2023-03-01T11:27:01;102137.00;;;4.80
5571;BMP180;2808;51.240;6.794;2023-03-01T11:29:35;102140.00;;;4.80
5571;BMP180;2808;51.240;6.794;2023-03-01T11:32:07;102134.00;;;4.80
5571;BMP180;2808;51.240;6.794;2023-03-01T11:34:40;102126.00;;;5.00
5571;BMP180;2808;51.240;6.794;2023-03-01T11:37:16;102120.00;;;5.00
5571;BMP180;2808;51.240;6.794;2023-03-01T11:39:58;102114.00;;;4.90
5571;BMP180;2808;51.240;6.794;2023-03-01T11:42:40;102116.00;;;5.00
5571;BMP180;2808;51.240;6.794;2023-03-01T11:45:12;102109.00;;;4.90
5571;BMP180;2808;51.240;6.794;2023-03-01T11:47:51;102117.00;;;5.00
5571;BMP180;2808;51.240;6.794;2023-03-01T11:50:28;102128.00;;;5.10
5571;BMP180;2808;51.240;6.794;2023-03-01T11:53:13;102128.00;;;5.10
5571;BMP180;2808;51.240;6.794;2023-03-01T11:55:58;102135.00;;;5.10
5571;BMP180;2808;51.240;6.794;2023-03-01T11:58:49;102108.00;;;5.00
5571;BMP180;2808;51.240;6.794;2023-03-01T12:01:32;102131.00;;;4.90
5571;BMP180;2808;51.240;6.794;2023-03-01T12:04:21;102133.00;;;4.80
5571;BMP180;2808;51.240;6.794;2023-03-01T12:06:57;102126.00;;;4.80
5571;BMP180;2808;51.240;6.794;2023-03-01T12:09:38;102109.00;;;4.90
5571;BMP180;2808;51.240;6.794;2023-03-01T12:12:27;102125.00;;;5.00
5571;BMP180;2808;51.240;6.794;2023-03-01T12:15:29;102110.00;;;5.00
5571;BMP180;2808;51.240;6.794;2023-03-01T12:18:28;102106.00;;;5.10
5571;BMP180;2808;51.240;6.794;2023-03-01T12:21:04;102087.00;;;5.20
5571;BMP180;2808;51.240;6.794;2023-03-01T12:26:33;102085.00;;;5.50
5571;BMP180;2808;51.240;6.794;2023-03-01T12:29:20;102091.00;;;5.50
5571;BMP180;2808;51.240;6.794;2023-03-01T12:32:20;102089.00;;;5.50
5571;BMP180;2808;51.240;6.794;2023-03-01T12:37:54;102074.00;;;5.70
5571;BMP180;2808;51.240;6.794;2023-03-01T12:40:43;102070.00;;;5.70
5571;BMP180;2808;51.240;6.794;2023-03-01T12:43:22;102063.00;;;5.80
5571;BMP180;2808;51.240;6.794;2023-03-01T12:46:18;102061.00;;;5.80
5571;BMP180;2808;51.240;6.794;2023-03-01T12:48:51;102060.00;;;5.60
5571;BMP180;2808;51.240;6.794;2023-03-01T12:51:25;102060.00;;;5.60
5571;BMP180;2808;51.240;6.794;2023-03-01T12:53:55;102047.00;;;5.70
5571;BMP180;2808;51.240;6.794;2023-03-01T12:56:27;102033.00;;;5.70
5571;BMP180;2808;51.240;6.794;2023-03-01T12:59:01;102037.00;;;5.80
5571;BMP180;2808;51.240;6.794;2023-03-01T13:01:40;102044.00;;;5.80
5571;BMP180;2808;51.240;6.794;2023-03-01T13:04:18;102045.00;;;5.70
5571;BMP180;2808;51.240;6.794;2023-03-01T13:07:00;102035.00;;;5.70
5571;BMP180;2808;51.240;6.794;2023-03-01T13:09:37;102039.00;;;5.80
5571;BMP180;2808;51.240;6.794;2023-03-01T13:15:29;102040.00;;;5.70
5571;BMP180;2808;51.240;6.794;2023-03-01T13:17:59;102036.00;;;5.70
5571;BMP180;2808;51.240;6.794;2023-03-01T13:20:30;102027.00;;;5.80
5571;BMP180;2808;51.240;6.794;2023-03-01T13:23:09;102034.00;;;5.80
5571;BMP180;2808;51.240;6.794;2023-03-01T13:26:01;102017.00;;;5.80
5571;BMP180;2808;51.240;6.794;2023-03-01T13:28:47;102011.00;;;5.80
5571;BMP180;2808;51.240;6.794;2023-03-01T13:34:53;102010.00;;;5.80
5571;BMP180;2808;51.240;6.794;2023-03-01T13:40:07;102013.00;;;5.90
5571;BMP180;2808;51.240;6.794;2023-03-01T13:42:54;102023.00;;;5.90
5571;BMP180;2808;51.240;6.794;2023-03-01T13:45:32;102018.00;;;5.80
5571;BMP180;2808;51.240;6.794;2023-03-01T13:48:04;102002.00;;;5.90
5571;BMP180;2808;51.240;6.794;2023-03-01T13:50:43;102018.00;;;6.00
5571;BMP180;2808;51.240;6.794;2023-03-01T13:53:16;102007.00;;;6.00
5571;BMP180;2808;51.240;6.794;2023-03-01T13:55:48;102009.00;;;6.00
5571;BMP180;2808;51.240;6.794;2023-03-01T13:58:21;101996.00;;;5.90
5571;BMP180;2808;51.240;6.794;2023-03-01T14:00:57;101994.00;;;5.90
5571;BMP180;2808;51.240;6.794;2023-03-01T14:03:25;101995.00;;;6.00
5571;BMP180;2808;51.240;6.794;2023-03-01T14:06:03;101996.00;;;6.00
5571;BMP180;2808;51.240;6.794;2023-03-01T14:08:33;101983.00;;;6.00
5571;BMP180;2808;51.240;6.794;2023-03-01T14:17:27;101992.00;;;6.00
5571;BMP180;2808;51.240;6.794;2023-03-01T14:19:58;101993.00;;;6.00
5571;BMP180;2808;51.240;6.794;2023-03-01T14:22:28;101980.00;;;5.90
5571;BMP180;2808;51.240;6.794;2023-03-01T14:24:57;101970.00;;;6.00
5571;BMP180;2808;51.240;6.794;2023-03-01T14:27:27;101960.00;;;6.00
5571;BMP180;2808;51.240;6.794;2023-03-01T14:29:58;101975.00;;;6.10
5571;BMP180;2808;51.240;6.794;2023-03-01T14:32:28;101973.00;;;6.00
5571;BMP180;2808;51.240;6.794;2023-03-01T14:34:57;101968.00;;;5.90
5571;BMP180;2808;51.240;6.794;2023-03-01T14:37:26;101956.00;;;5.90
5571;BMP180;2808;51.240;6.794;2023-03-01T14:39:57;101942.00;;;6.00
5571;BMP180;2808;51.240;6.794;2023-03-01T14:42:28;101950.00;;;6.10
5571;BMP180;2808;51.240;6.794;2023-03-01T14:44:59;101936.00;;;6.10
5571;BMP180;2808;51.240;6.794;2023-03-01T14:47:33;101979.00;;;6.10
5571;BMP180;2808;51.240;6.794;2023-03-01T14:50:04;101937.00;;;6.00
5571;BMP180;2808;51.240;6.794;2023-03-01T14:52:35;101920.00;;;6.10
5571;BMP180;2808;51.240;6.794;2023-03-01T14:55:07;101948.00;;;6.10
5571;BMP180;2808;51.240;6.794;2023-03-01T14:57:44;101940.00;;;6.00
5571;BMP180;2808;51.240;6.794;2023-03-01T15:00:19;101918.00;;;6.00
5571;BMP180;2808;51.240;6.794;2023-03-01T15:02:48;101921.00;;;6.00
5571;BMP180;2808;51.240;6.794;2023-03-01T15:05:27;101911.00;;;6.00
5571;BMP180;2808;51.240;6.794;2023-03-01T15:08:39;101932.00;;;6.10
5571;BMP180;2808;51.240;6.794;2023-03-01T15:11:04;101928.00;;;6.10
5571;BMP180;2808;51.240;6.794;2023-03-01T15:13:33;101922.00;;;6.20
5571;BMP180;2808;51.240;6.794;2023-03-01T15:16:05;101914.00;;;6.10
5571;BMP180;2808;51.240;6.794;2023-03-01T15:18:33;101919.00;;;6.10
5571;BMP180;2808;51.240;6.794;2023-03-01T15:21:09;101908.00;;;6.10
5571;BMP180;2808;51.240;6.794;2023-03-01T15:23:37;101916.00;;;6.00
5571;BMP180;2808;51.240;6.794;2023-03-01T15:26:22;101904.00;;;6.10
5571;BMP180;2808;51.240;6.794;2023-03-01T15:28:52;101903.00;;;6.10